EmailTwitter


Observations de surface / Canada / CYYZ (71624)

Régions: Québec | Canada | États-Unis | Europe | France | UK | Ailleurs
Station
Affichage
Infos & localisation pour CYYZ (71624) | Aide pour décoder les METARs

Observations prises le 2018-04-22 à 21H00 UTC à TORONTO A, ON (CYYZ)

Etat du ciel: quelques nuages.

Température: 15.0 Celsius

Point de rosée: -8.0 Celsius

Humidité relative: 20%

Vents: Sud à 19 km/h ou 10 noeuds.

Pression au niveau moyen de la mer: 102.86 kilopascals.

Calage altimétrique: 102.81 kilopascals ou 30.36 pouces de mercure.

Visibilité horizontale: 15.00 milles terrestres ou 24.00 kilomètres.

Observation METAR:

CYYZ 222100Z 17010KT 15SM FEW250 15/M08 A3036 RMK CI1 CI TR SLP286=